Time;durP1;ratioP1;P1;durP2;ratioP2;P2;SDS_P1;SDS_P2;PMS_P1;PMS_P2;Temp;Humidity;BMP_temperature;BMP_pressure;BME280_temperature;BME280_humidity;BME280_pressure;Samples;Min_cycle;Max_cycle;Signal;HPM_P1;HPM_P2
2020/12/14 00:00:58;;;;;;;60.37;32.73;;;;;;;;;;728175;189;916565;-65
2020/12/14 00:03:24;;;;;;;58.57;32.20;;;;;;;;;;706298;195;915065;-64
2020/12/14 00:05:50;;;;;;;70.40;35.27;;;;;;;;;;723565;192;919369;-66
2020/12/14 00:08:15;;;;;;;72.03;35.50;;;;;;;;;;723333;190;926205;-65
2020/12/14 00:10:41;;;;;;;62.20;32.07;;;;;;;;;;742121;185;918933;-65
2020/12/14 00:13:07;;;;;;;66.43;33.20;;;;;;;;;;724716;189;918982;-65
2020/12/14 00:15:33;;;;;;;66.73;34.30;;;;;;;;;;721884;190;919128;-65
2020/12/14 00:17:59;;;;;;;61.90;32.23;;;;;;;;;;745613;186;944340;-65
2020/12/14 00:20:25;;;;;;;63.33;29.73;;;;;;;;;;724915;189;936744;-65
2020/12/14 00:22:50;;;;;;;57.67;31.80;;;;;;;;;;725566;189;927968;-65
2020/12/14 00:25:16;;;;;;;64.00;30.10;;;;;;;;;;724104;191;918742;-65
2020/12/14 00:27:42;;;;;;;62.70;32.53;;;;;;;;;;722273;191;918867;-65
2020/12/14 00:30:08;;;;;;;64.87;33.20;;;;;;;;;;739127;186;920591;-64
2020/12/14 00:32:34;;;;;;;67.20;30.80;;;;;;;;;;725058;190;921284;-64
2020/12/14 00:35:00;;;;;;;65.37;32.60;;;;;;;;;;717035;188;1978974;-65
2020/12/14 00:37:26;;;;;;;60.33;32.03;;;;;;;;;;726289;189;919784;-66
2020/12/14 00:39:51;;;;;;;66.15;35.08;;;;;;;;;;722036;190;920323;-64
2020/12/14 00:42:17;;;;;;;71.00;35.53;;;;;;;;;;744930;186;919690;-65
2020/12/14 00:44:44;;;;;;;74.00;34.87;;;;;;;;;;727046;190;916531;-66
2020/12/14 00:47:10;;;;;;;66.30;34.07;;;;;;;;;;724689;189;915272;-65
2020/12/14 00:49:36;;;;;;;70.83;35.77;;;;;;;;;;744477;186;1017495;-65
2020/12/14 00:52:04;;;;;;;64.75;33.95;;;;;;;;;;739461;186;918889;-65
2020/12/14 00:54:28;;;;;;;72.50;34.83;;;;;;;;;;741583;185;919314;-65
2020/12/14 00:56:54;;;;;;;63.43;34.40;;;;;;;;;;738813;186;1619265;-65
2020/12/14 00:59:19;;;;;;;64.70;31.33;;;;;;;;;;716244;193;944679;-65
2020/12/14 01:01:45;;;;;;;68.33;34.03;;;;;;;;;;713784;193;919456;-65
2020/12/14 01:04:11;;;;;;;71.73;30.67;;;;;;;;;;713439;194;918399;-64
2020/12/14 01:06:37;;;;;;;66.37;31.53;;;;;;;;;;716605;194;1021031;-65
2020/12/14 01:09:03;;;;;;;56.47;29.70;;;;;;;;;;711802;192;919162;-65
2020/12/14 01:11:29;;;;;;;51.90;27.97;;;;;;;;;;721440;190;918280;-65
2020/12/14 01:13:54;;;;;;;58.73;31.37;;;;;;;;;;727985;189;939042;-65
2020/12/14 01:16:20;;;;;;;51.87;26.67;;;;;;;;;;722424;189;918981;-66
2020/12/14 01:18:46;;;;;;;62.80;29.90;;;;;;;;;;723866;190;927217;-65
2020/12/14 01:21:13;;;;;;;56.57;28.57;;;;;;;;;;743044;186;919366;-65
2020/12/14 01:23:39;;;;;;;55.53;26.80;;;;;;;;;;723454;190;923793;-65
2020/12/14 01:26:05;;;;;;;55.10;28.03;;;;;;;;;;716758;192;919038;-65
2020/12/14 01:28:31;;;;;;;61.00;27.80;;;;;;;;;;735313;186;918921;-64
2020/12/14 01:30:57;;;;;;;57.47;30.27;;;;;;;;;;744101;186;919114;-65
2020/12/14 01:33:22;;;;;;;57.30;28.93;;;;;;;;;;735834;186;919123;-66
2020/12/14 01:35:48;;;;;;;55.13;27.17;;;;;;;;;;738422;186;928808;-65
2020/12/14 01:38:14;;;;;;;54.60;29.00;;;;;;;;;;731326;189;918502;-65
2020/12/14 01:40:40;;;;;;;50.00;27.13;;;;;;;;;;728174;189;919292;-65
2020/12/14 01:43:06;;;;;;;56.13;26.73;;;;;;;;;;698773;197;1245879;-64
2020/12/14 01:45:32;;;;;;;43.87;24.50;;;;;;;;;;745090;185;919045;-64
2020/12/14 01:47:58;;;;;;;63.03;27.80;;;;;;;;;;723536;189;918829;-65
2020/12/14 01:50:23;;;;;;;52.13;27.93;;;;;;;;;;706072;195;919437;-65
2020/12/14 01:52:49;;;;;;;57.60;29.63;;;;;;;;;;718369;191;920096;-64
2020/12/14 01:55:15;;;;;;;57.90;26.33;;;;;;;;;;732163;188;919528;-66
2020/12/14 01:57:42;;;;;;;55.50;27.63;;;;;;;;;;737518;186;920150;-66
2020/12/14 02:00:08;;;;;;;51.33;24.77;;;;;;;;;;740077;185;917980;-65
2020/12/14 02:02:33;;;;;;;48.57;26.33;;;;;;;;;;745775;185;919343;-65
2020/12/14 02:04:59;;;;;;;51.00;25.73;;;;;;;;;;721208;189;1281252;-66
2020/12/14 02:07:25;;;;;;;60.00;24.35;;;;;;;;;;742093;184;914358;-67
2020/12/14 02:09:54;;;;;;;57.20;26.43;;;;;;;;;;744489;186;915092;-67
2020/12/14 02:12:21;;;;;;;56.17;25.93;;;;;;;;;;724794;189;915869;-68
2020/12/14 02:14:46;;;;;;;63.15;27.75;;;;;;;;;;723172;190;918265;-68
2020/12/14 02:17:12;;;;;;;58.07;26.80;;;;;;;;;;739212;186;918906;-67
2020/12/14 02:19:38;;;;;;;57.00;26.80;;;;;;;;;;731440;188;917870;-68
2020/12/14 02:22:04;;;;;;;48.50;25.80;;;;;;;;;;737406;186;1020498;-68
2020/12/14 02:24:29;;;;;;;43.50;23.63;;;;;;;;;;736564;186;920085;-68
2020/12/14 02:26:55;;;;;;;50.57;24.70;;;;;;;;;;746290;186;823579;-69
2020/12/14 02:29:21;;;;;;;53.40;26.03;;;;;;;;;;721563;189;918421;-69
2020/12/14 02:31:47;;;;;;;49.20;26.20;;;;;;;;;;724122;190;918671;-69
2020/12/14 02:34:13;;;;;;;42.13;23.70;;;;;;;;;;724584;190;919224;-70
2020/12/14 02:36:39;;;;;;;53.20;25.53;;;;;;;;;;743760;186;872792;-70
2020/12/14 02:39:04;;;;;;;46.37;24.00;;;;;;;;;;724020;190;918907;-70
2020/12/14 02:41:30;;;;;;;60.50;27.10;;;;;;;;;;714603;194;918418;-70
2020/12/14 02:43:56;;;;;;;66.57;35.47;;;;;;;;;;740830;184;926971;-71
2020/12/14 02:46:22;;;;;;;56.10;26.63;;;;;;;;;;736773;185;917591;-70
2020/12/14 02:48:48;;;;;;;52.07;26.57;;;;;;;;;;739138;184;918874;-70
2020/12/14 02:51:16;;;;;;;59.13;29.73;;;;;;;;;;744783;185;1047618;-70
2020/12/14 02:53:42;;;;;;;46.20;25.67;;;;;;;;;;727062;189;917914;-70
2020/12/14 02:56:08;;;;;;;47.83;26.30;;;;;;;;;;699282;197;918953;-70
2020/12/14 02:58:34;;;;;;;48.30;25.47;;;;;;;;;;730086;190;919089;-70
2020/12/14 03:01:00;;;;;;;66.90;31.67;;;;;;;;;;722758;189;917705;-69
2020/12/14 03:03:26;;;;;;;62.83;29.67;;;;;;;;;;705898;195;919189;-70
2020/12/14 03:05:51;;;;;;;47.53;27.37;;;;;;;;;;723585;191;918930;-70
2020/12/14 03:08:17;;;;;;;56.97;27.92;;;;;;;;;;717199;192;922313;-70
2020/12/14 03:10:43;;;;;;;94.63;44.43;;;;;;;;;;724191;189;918823;-70
2020/12/14 03:13:09;;;;;;;113.50;45.00;;;;;;;;;;723381;190;918774;-69
2020/12/14 03:15:35;;;;;;;53.60;28.27;;;;;;;;;;743158;186;919033;-70
2020/12/14 03:18:01;;;;;;;55.27;24.33;;;;;;;;;;725368;189;919286;-69
2020/12/14 03:20:27;;;;;;;53.30;23.33;;;;;;;;;;740612;184;918664;-69
2020/12/14 03:22:52;;;;;;;56.93;25.07;;;;;;;;;;743567;186;918064;-70
2020/12/14 03:25:18;;;;;;;50.70;24.63;;;;;;;;;;740719;186;920775;-69
2020/12/14 03:27:44;;;;;;;52.77;25.87;;;;;;;;;;736826;186;921453;-69
2020/12/14 03:30:11;;;;;;;51.83;27.10;;;;;;;;;;745039;186;918215;-69
2020/12/14 03:32:36;;;;;;;59.00;27.27;;;;;;;;;;719503;189;2019807;-69
2020/12/14 03:35:02;;;;;;;70.10;29.37;;;;;;;;;;743539;185;918742;-69
2020/12/14 03:37:28;;;;;;;51.43;28.53;;;;;;;;;;721969;189;918619;-68
2020/12/14 03:39:53;;;;;;;65.75;31.00;;;;;;;;;;732352;188;917726;-69
2020/12/14 03:42:19;;;;;;;57.53;29.63;;;;;;;;;;737785;184;919192;-69
2020/12/14 03:44:45;;;;;;;53.13;28.27;;;;;;;;;;738186;186;918632;-69
2020/12/14 03:47:11;;;;;;;72.17;33.27;;;;;;;;;;741029;186;919071;-69
2020/12/14 03:49:37;;;;;;;59.33;27.67;;;;;;;;;;725328;189;918649;-69
2020/12/14 03:52:04;;;;;;;56.13;29.00;;;;;;;;;;736582;184;920159;-69
2020/12/14 03:54:30;;;;;;;64.37;31.47;;;;;;;;;;744453;186;967364;-69
2020/12/14 03:56:56;;;;;;;62.45;32.95;;;;;;;;;;724834;190;919199;-69
2020/12/14 03:59:22;;;;;;;66.60;35.57;;;;;;;;;;715036;192;918446;-70
2020/12/14 04:01:48;;;;;;;58.90;30.57;;;;;;;;;;743859;185;921789;-69
2020/12/14 04:04:13;;;;;;;65.63;35.77;;;;;;;;;;744761;185;628889;-69
2020/12/14 04:06:39;;;;;;;64.87;34.97;;;;;;;;;;743813;185;918796;-69
2020/12/14 04:09:05;;;;;;;68.10;32.30;;;;;;;;;;738964;185;918733;-69
2020/12/14 04:11:31;;;;;;;58.20;30.60;;;;;;;;;;746365;185;920953;-69
2020/12/14 04:13:57;;;;;;;65.15;30.35;;;;;;;;;;722432;190;918356;-69
2020/12/14 04:16:23;;;;;;;64.50;30.37;;;;;;;;;;717573;192;931643;-69
2020/12/14 04:18:49;;;;;;;71.53;34.10;;;;;;;;;;744058;186;955746;-69
2020/12/14 04:21:14;;;;;;;63.20;33.10;;;;;;;;;;726811;189;918891;-69
2020/12/14 04:23:40;;;;;;;70.57;36.37;;;;;;;;;;722552;189;922165;-69
2020/12/14 04:26:06;;;;;;;76.43;34.87;;;;;;;;;;745380;186;927377;-69
2020/12/14 04:28:32;;;;;;;71.40;35.90;;;;;;;;;;738733;186;918785;-69
2020/12/14 04:30:58;;;;;;;107.97;49.33;;;;;;;;;;740543;185;916609;-69
2020/12/14 04:33:24;;;;;;;72.17;39.10;;;;;;;;;;738914;186;913263;-69
2020/12/14 04:35:49;;;;;;;73.17;36.93;;;;;;;;;;735415;188;915351;-69
2020/12/14 04:38:15;;;;;;;81.63;33.77;;;;;;;;;;736686;186;919148;-69
2020/12/14 04:40:41;;;;;;;78.33;34.00;;;;;;;;;;719852;189;1244034;-69
2020/12/14 04:43:07;;;;;;;63.03;30.60;;;;;;;;;;726658;192;918029;-69
2020/12/14 04:45:33;;;;;;;72.50;33.80;;;;;;;;;;719063;190;918837;-68
2020/12/14 04:47:59;;;;;;;67.37;32.30;;;;;;;;;;739365;184;918356;-69
2020/12/14 04:50:24;;;;;;;87.60;41.50;;;;;;;;;;741186;185;918109;-70
2020/12/14 04:52:50;;;;;;;141.40;57.83;;;;;;;;;;726807;190;919692;-69
2020/12/14 04:55:17;;;;;;;111.13;48.97;;;;;;;;;;698469;197;919153;-68
2020/12/14 04:57:43;;;;;;;143.87;70.40;;;;;;;;;;717568;194;919258;-69
2020/12/14 05:00:09;;;;;;;134.90;60.00;;;;;;;;;;705556;193;2157347;-68
2020/12/14 05:02:34;;;;;;;134.03;58.57;;;;;;;;;;715064;194;919220;-69
2020/12/14 05:05:00;;;;;;;74.10;37.53;;;;;;;;;;709688;194;919184;-68
2020/12/14 05:07:32;;;;;;;78.17;32.20;;;;;;;;;;721642;192;628187;-68
2020/12/14 05:10:01;;;;;;;96.80;40.70;;;;;;;;;;714990;193;919725;-68
2020/12/14 05:12:27;;;;;;;96.03;42.60;;;;;;;;;;725932;189;926970;-69
2020/12/14 05:14:53;;;;;;;89.53;39.80;;;;;;;;;;743152;185;918409;-68
2020/12/14 05:17:20;;;;;;;75.93;35.23;;;;;;;;;;725848;188;919175;-68
2020/12/14 05:19:46;;;;;;;94.07;39.13;;;;;;;;;;727699;189;918339;-68
2020/12/14 05:22:12;;;;;;;89.93;38.27;;;;;;;;;;739466;185;918902;-68
2020/12/14 05:24:38;;;;;;;67.47;36.73;;;;;;;;;;747596;186;822852;-68
2020/12/14 05:27:04;;;;;;;94.03;37.97;;;;;;;;;;720030;190;918422;-68
2020/12/14 05:29:29;;;;;;;179.80;74.27;;;;;;;;;;718730;189;918558;-69
2020/12/14 05:32:00;;;;;;;99.43;42.70;;;;;;;;;;725086;190;927416;-69
2020/12/14 05:34:31;;;;;;;100.30;45.87;;;;;;;;;;735515;188;918049;-68
2020/12/14 05:36:57;;;;;;;96.20;40.83;;;;;;;;;;735558;186;918353;-68
2020/12/14 05:39:24;;;;;;;93.80;40.40;;;;;;;;;;723389;190;920750;-69
2020/12/14 05:41:51;;;;;;;96.97;41.63;;;;;;;;;;714397;193;919918;-68
2020/12/14 05:44:16;;;;;;;98.97;42.50;;;;;;;;;;698099;198;918874;-68
2020/12/14 05:46:42;;;;;;;104.03;46.50;;;;;;;;;;733712;184;1068329;-68
2020/12/14 05:49:08;;;;;;;95.55;42.17;;;;;;;;;;742396;185;914807;-67
2020/12/14 05:51:36;;;;;;;90.67;38.60;;;;;;;;;;734087;188;916320;-67
2020/12/14 05:54:01;;;;;;;127.87;51.43;;;;;;;;;;735409;186;918978;-68
2020/12/14 05:56:27;;;;;;;99.10;48.40;;;;;;;;;;725415;190;918905;-68
2020/12/14 05:58:53;;;;;;;98.70;42.03;;;;;;;;;;714229;194;913885;-68
2020/12/14 06:01:19;;;;;;;100.80;40.40;;;;;;;;;;712724;193;921691;-67
2020/12/14 06:03:45;;;;;;;95.67;41.23;;;;;;;;;;720640;190;918891;-68
2020/12/14 06:06:13;;;;;;;95.23;44.00;;;;;;;;;;724534;191;1008191;-67
2020/12/14 06:08:42;;;;;;;110.73;49.93;;;;;;;;;;727800;190;917690;-68
2020/12/14 06:11:08;;;;;;;85.97;37.60;;;;;;;;;;714153;191;1021221;-68
2020/12/14 06:13:34;;;;;;;93.97;40.30;;;;;;;;;;738390;185;919133;-68
2020/12/14 06:16:01;;;;;;;93.13;40.50;;;;;;;;;;748932;186;918604;-68
2020/12/14 06:18:26;;;;;;;79.27;36.63;;;;;;;;;;725582;190;928468;-68
2020/12/14 06:20:52;;;;;;;82.10;36.80;;;;;;;;;;725017;190;918174;-68
2020/12/14 06:23:18;;;;;;;83.17;39.37;;;;;;;;;;724681;191;918947;-68
2020/12/14 06:25:44;;;;;;;86.50;40.03;;;;;;;;;;745639;185;919209;-68
2020/12/14 06:28:16;;;;;;;90.50;40.33;;;;;;;;;;740922;186;918521;-68
2020/12/14 06:30:41;;;;;;;95.23;44.73;;;;;;;;;;749178;184;918622;-68
2020/12/14 06:33:12;;;;;;;109.50;42.90;;;;;;;;;;741413;186;913488;-68
2020/12/14 06:35:42;;;;;;;104.95;42.03;;;;;;;;;;720436;190;1017543;-67
2020/12/14 06:38:08;;;;;;;91.13;41.30;;;;;;;;;;728501;190;918705;-68
2020/12/14 06:40:39;;;;;;;90.30;38.87;;;;;;;;;;739747;186;919364;-68
2020/12/14 06:43:05;;;;;;;73.70;35.63;;;;;;;;;;736861;188;918511;-68
2020/12/14 06:45:31;;;;;;;100.27;43.50;;;;;;;;;;736162;186;918752;-67
2020/12/14 06:47:57;;;;;;;90.47;38.60;;;;;;;;;;729618;189;633428;-67
2020/12/14 06:50:28;;;;;;;84.77;39.80;;;;;;;;;;716781;193;630286;-68
2020/12/14 06:52:54;;;;;;;80.63;34.00;;;;;;;;;;718410;195;631483;-68
2020/12/14 06:55:30;;;;;;;90.57;37.50;;;;;;;;;;736548;186;1025545;-68
2020/12/14 06:57:56;;;;;;;88.80;38.93;;;;;;;;;;723167;189;917993;-68
2020/12/14 07:00:22;;;;;;;99.27;38.77;;;;;;;;;;719358;191;919249;-68
2020/12/14 07:02:48;;;;;;;90.03;39.97;;;;;;;;;;725553;190;1020491;-67
2020/12/14 07:05:19;;;;;;;78.83;33.60;;;;;;;;;;715608;192;919347;-68
2020/12/14 07:07:52;;;;;;;76.63;37.10;;;;;;;;;;726485;190;889893;-68
2020/12/14 07:10:19;;;;;;;84.50;35.03;;;;;;;;;;717690;193;646663;-68
2020/12/14 07:12:44;;;;;;;75.23;34.87;;;;;;;;;;722044;191;628034;-68
2020/12/14 07:15:25;;;;;;;318.40;123.90;;;;;;;;;;723192;190;918631;-68
2020/12/14 07:17:57;;;;;;;105.20;43.83;;;;;;;;;;745231;186;919192;-68
2020/12/14 07:20:23;;;;;;;129.50;59.40;;;;;;;;;;728790;186;917858;-68
2020/12/14 07:22:48;;;;;;;99.53;46.33;;;;;;;;;;746298;185;919909;-68
2020/12/14 07:25:19;;;;;;;88.30;38.83;;;;;;;;;;722952;190;919072;-67
2020/12/14 07:27:45;;;;;;;97.63;41.70;;;;;;;;;;718738;192;919161;-68
2020/12/14 07:30:11;;;;;;;92.43;38.50;;;;;;;;;;718319;189;918429;-68
2020/12/14 07:32:37;;;;;;;117.22;51.92;;;;;;;;;;723459;190;938371;-68
2020/12/14 07:35:02;;;;;;;150.97;54.90;;;;;;;;;;716197;192;921905;-68
2020/12/14 07:37:28;;;;;;;87.50;38.80;;;;;;;;;;737412;187;1024917;-68
2020/12/14 07:39:54;;;;;;;140.47;58.57;;;;;;;;;;748814;186;918141;-68
2020/12/14 07:42:25;;;;;;;114.87;47.07;;;;;;;;;;726190;190;919030;-67
2020/12/14 07:44:51;;;;;;;107.30;44.27;;;;;;;;;;726161;190;918994;-66
2020/12/14 07:47:18;;;;;;;119.97;44.90;;;;;;;;;;726175;191;913613;-68
2020/12/14 07:49:44;;;;;;;111.27;44.50;;;;;;;;;;723984;192;916154;-67
2020/12/14 07:52:10;;;;;;;90.23;42.67;;;;;;;;;;702797;195;917418;-67
2020/12/14 07:54:36;;;;;;;98.17;41.80;;;;;;;;;;736339;186;919179;-65
2020/12/14 07:57:07;;;;;;;113.07;41.57;;;;;;;;;;743252;186;918764;-67
2020/12/14 07:59:28;;;;;;;102.93;41.27;;;;;;;;;;742722;186;919144;-66
2020/12/14 08:01:53;;;;;;;97.00;38.67;;;;;;;;;;738621;185;1019655;-66
2020/12/14 08:04:23;;;;;;;122.43;41.77;;;;;;;;;;745613;186;918883;-65
2020/12/14 08:06:50;;;;;;;102.80;38.80;;;;;;;;;;723201;190;921199;-64
2020/12/14 08:09:17;;;;;;;100.30;39.27;;;;;;;;;;715852;192;936778;-65
2020/12/14 08:11:43;;;;;;;113.27;40.60;;;;;;;;;;723092;190;915914;-65
2020/12/14 08:14:09;;;;;;;111.00;38.00;;;;;;;;;;725474;191;916152;-65
2020/12/14 08:16:35;;;;;;;91.50;38.07;;;;;;;;;;726404;189;915807;-65
2020/12/14 08:19:01;;;;;;;119.83;41.43;;;;;;;;;;721720;190;915902;-63
2020/12/14 08:21:27;;;;;;;86.57;37.50;;;;;;;;;;731109;190;919699;-64
2020/12/14 08:23:53;;;;;;;83.73;33.60;;;;;;;;;;724553;190;919266;-65
2020/12/14 08:26:23;;;;;;;97.53;34.63;;;;;;;;;;723834;190;920492;-64
2020/12/14 08:28:48;;;;;;;89.70;39.37;;;;;;;;;;738970;185;918645;-64
2020/12/14 08:31:14;;;;;;;87.10;36.00;;;;;;;;;;717005;189;919078;-64
2020/12/14 08:33:46;;;;;;;81.67;36.20;;;;;;;;;;720043;190;917785;-65
2020/12/14 08:36:11;;;;;;;79.47;37.03;;;;;;;;;;719284;192;919893;-63
2020/12/14 08:38:37;;;;;;;75.57;36.03;;;;;;;;;;745300;185;919807;-65
2020/12/14 08:41:03;;;;;;;94.33;34.50;;;;;;;;;;727140;190;918620;-65
2020/12/14 08:43:29;;;;;;;86.33;36.20;;;;;;;;;;708852;195;919273;-65
2020/12/14 08:46:10;;;;;;;65.80;30.77;;;;;;;;;;725895;192;919724;-64
2020/12/14 08:48:42;;;;;;;72.33;34.97;;;;;;;;;;708152;194;918584;-63
2020/12/14 08:51:07;;;;;;;73.37;34.50;;;;;;;;;;744566;187;919204;-62
2020/12/14 08:53:38;;;;;;;71.15;31.08;;;;;;;;;;744044;186;918960;-62
2020/12/14 08:56:08;;;;;;;65.50;33.00;;;;;;;;;;730074;190;920458;-63
2020/12/14 08:58:37;;;;;;;57.50;30.40;;;;;;;;;;721958;190;916417;-63
2020/12/14 09:01:08;;;;;;;62.20;30.33;;;;;;;;;;719448;188;915446;-63
2020/12/14 09:03:40;;;;;;;56.47;27.67;;;;;;;;;;719936;190;915904;-64
2020/12/14 09:06:06;;;;;;;65.40;33.00;;;;;;;;;;722409;188;1160316;-64
2020/12/14 09:08:32;;;;;;;67.50;28.20;;;;;;;;;;720286;189;916789;-64
2020/12/14 09:10:57;;;;;;;65.90;31.90;;;;;;;;;;729074;190;910050;-63
2020/12/14 09:13:23;;;;;;;69.07;33.10;;;;;;;;;;739343;186;917234;-63
2020/12/14 09:15:51;;;;;;;65.27;28.27;;;;;;;;;;723028;189;911110;-64
2020/12/14 09:18:17;;;;;;;47.90;25.50;;;;;;;;;;746113;187;916237;-63
2020/12/14 09:20:43;;;;;;;50.87;24.23;;;;;;;;;;723290;189;918941;-63
2020/12/14 09:23:08;;;;;;;55.27;30.83;;;;;;;;;;725865;189;918487;-63
2020/12/14 09:25:34;;;;;;;49.03;28.07;;;;;;;;;;713350;194;918433;-63
2020/12/14 09:28:00;;;;;;;65.43;28.80;;;;;;;;;;710517;193;919437;-64
2020/12/14 09:30:26;;;;;;;48.90;24.87;;;;;;;;;;723212;189;917977;-64
2020/12/14 09:32:52;;;;;;;54.97;25.17;;;;;;;;;;715647;193;920130;-63
2020/12/14 09:35:20;;;;;;;42.70;23.10;;;;;;;;;;718167;192;918679;-65
2020/12/14 09:37:46;;;;;;;44.23;24.50;;;;;;;;;;717650;189;919015;-64
2020/12/14 09:40:12;;;;;;;50.53;26.33;;;;;;;;;;700870;198;918075;-64
2020/12/14 09:42:38;;;;;;;49.10;23.43;;;;;;;;;;719933;194;918175;-64
2020/12/14 09:45:05;;;;;;;37.13;22.80;;;;;;;;;;712586;194;919481;-64
2020/12/14 09:47:30;;;;;;;36.43;20.80;;;;;;;;;;710896;193;918274;-64
2020/12/14 09:49:55;;;;;;;43.83;19.73;;;;;;;;;;719158;193;918594;-64
2020/12/14 09:52:21;;;;;;;42.23;25.37;;;;;;;;;;709067;194;1358647;-64
2020/12/14 09:54:47;;;;;;;47.33;23.70;;;;;;;;;;714489;194;918954;-64
2020/12/14 09:57:13;;;;;;;44.23;24.17;;;;;;;;;;709595;194;919166;-64
2020/12/14 09:59:39;;;;;;;50.53;24.57;;;;;;;;;;735685;189;846290;-64
2020/12/14 10:02:05;;;;;;;46.30;24.97;;;;;;;;;;721663;189;931480;-64
2020/12/14 10:04:30;;;;;;;47.20;24.57;;;;;;;;;;725317;189;919109;-63
2020/12/14 10:06:56;;;;;;;44.97;22.67;;;;;;;;;;721774;192;919567;-64
2020/12/14 10:09:22;;;;;;;43.20;24.93;;;;;;;;;;716371;192;919323;-64
2020/12/14 10:11:48;;;;;;;45.87;26.10;;;;;;;;;;708017;192;1879509;-64
2020/12/14 10:14:14;;;;;;;47.93;25.33;;;;;;;;;;721087;193;915247;-64
2020/12/14 10:16:40;;;;;;;44.50;23.63;;;;;;;;;;717727;189;914936;-65
2020/12/14 10:19:06;;;;;;;40.90;23.67;;;;;;;;;;721156;189;915709;-64
2020/12/14 10:21:31;;;;;;;47.03;24.40;;;;;;;;;;714320;193;915186;-64
2020/12/14 10:23:57;;;;;;;45.77;23.90;;;;;;;;;;716294;193;915013;-63
2020/12/14 10:26:24;;;;;;;45.40;24.17;;;;;;;;;;723365;189;919098;-64
2020/12/14 10:28:49;;;;;;;41.93;21.70;;;;;;;;;;699031;198;918856;-64
2020/12/14 10:31:15;;;;;;;42.00;23.10;;;;;;;;;;729714;190;919081;-64
2020/12/14 10:33:46;;;;;;;38.73;22.93;;;;;;;;;;739581;186;1188731;-65
2020/12/14 10:36:08;;;;;;;41.73;23.37;;;;;;;;;;738314;186;919295;-64
2020/12/14 10:38:34;;;;;;;41.50;22.70;;;;;;;;;;742412;186;919323;-64
2020/12/14 10:41:00;;;;;;;39.03;21.10;;;;;;;;;;725920;190;919368;-64
2020/12/14 10:43:26;;;;;;;41.77;21.93;;;;;;;;;;705018;195;1114669;-65
2020/12/14 10:45:52;;;;;;;36.90;19.17;;;;;;;;;;730255;192;919086;-64
2020/12/14 10:48:17;;;;;;;36.93;20.17;;;;;;;;;;716512;193;921799;-64
2020/12/14 10:50:43;;;;;;;37.80;24.50;;;;;;;;;;712059;193;925922;-64
2020/12/14 10:53:09;;;;;;;40.40;24.30;;;;;;;;;;723375;190;918868;-64
2020/12/14 10:55:35;;;;;;;40.90;21.17;;;;;;;;;;738997;188;918177;-65
2020/12/14 10:58:01;;;;;;;33.70;19.30;;;;;;;;;;739757;186;919073;-64
2020/12/14 11:00:27;;;;;;;28.07;14.80;;;;;;;;;;722230;189;921628;-64
2020/12/14 11:02:56;;;;;;;27.93;15.30;;;;;;;;;;722815;192;1011557;-64
2020/12/14 11:05:18;;;;;;;35.37;17.13;;;;;;;;;;722002;189;918946;-65
2020/12/14 11:07:44;;;;;;;36.03;17.33;;;;;;;;;;724016;189;920170;-65
2020/12/14 11:10:10;;;;;;;26.40;16.07;;;;;;;;;;740883;186;919115;-65
2020/12/14 11:12:36;;;;;;;33.73;18.50;;;;;;;;;;739319;186;920030;-65
2020/12/14 11:15:02;;;;;;;32.73;18.43;;;;;;;;;;741040;185;919696;-64
2020/12/14 11:17:29;;;;;;;36.63;18.37;;;;;;;;;;745755;185;930111;-64
2020/12/14 11:19:54;;;;;;;36.30;18.33;;;;;;;;;;722596;188;1117421;-64
2020/12/14 11:22:20;;;;;;;44.20;20.83;;;;;;;;;;708063;196;919254;-65
2020/12/14 11:24:45;;;;;;;31.90;18.73;;;;;;;;;;729982;186;919864;-65
2020/12/14 11:27:11;;;;;;;37.67;19.87;;;;;;;;;;747194;185;919393;-64
2020/12/14 11:29:37;;;;;;;34.80;18.83;;;;;;;;;;723602;189;919627;-66
2020/12/14 11:32:03;;;;;;;27.70;17.48;;;;;;;;;;716378;192;918940;-65
2020/12/14 11:34:29;;;;;;;36.53;20.87;;;;;;;;;;721510;192;921135;-65
2020/12/14 11:36:55;;;;;;;42.17;20.20;;;;;;;;;;717363;190;1020958;-64
2020/12/14 11:39:21;;;;;;;37.53;20.30;;;;;;;;;;706279;195;920753;-65
2020/12/14 11:41:46;;;;;;;34.50;19.83;;;;;;;;;;723074;192;903471;-65
2020/12/14 11:44:12;;;;;;;41.73;19.63;;;;;;;;;;740393;186;919308;-65
2020/12/14 11:46:38;;;;;;;41.97;21.37;;;;;;;;;;740599;184;919701;-64
2020/12/14 11:49:04;;;;;;;38.93;20.07;;;;;;;;;;724265;190;918936;-65
2020/12/14 11:51:30;;;;;;;34.13;20.53;;;;;;;;;;725970;189;919898;-65
2020/12/14 11:53:55;;;;;;;40.77;23.37;;;;;;;;;;711556;192;918565;-64
2020/12/14 11:56:21;;;;;;;32.73;19.17;;;;;;;;;;737457;186;921301;-64
2020/12/14 11:58:47;;;;;;;27.57;18.90;;;;;;;;;;745052;186;920405;-65
2020/12/14 12:01:13;;;;;;;37.67;19.90;;;;;;;;;;723364;190;918910;-64
2020/12/14 12:03:39;;;;;;;33.03;19.40;;;;;;;;;;700438;199;919322;-64
2020/12/14 12:06:05;;;;;;;34.27;18.00;;;;;;;;;;739931;186;918189;-66
2020/12/14 12:08:31;;;;;;;35.13;17.80;;;;;;;;;;723453;190;917968;-64
2020/12/14 12:10:56;;;;;;;28.97;16.20;;;;;;;;;;741939;186;918798;-64
2020/12/14 12:13:22;;;;;;;29.73;16.97;;;;;;;;;;744062;186;916498;-65
2020/12/14 12:15:48;;;;;;;36.83;18.43;;;;;;;;;;743135;186;913231;-64
2020/12/14 12:18:14;;;;;;;35.07;17.37;;;;;;;;;;740669;184;917923;-64
2020/12/14 12:20:40;;;;;;;30.33;16.80;;;;;;;;;;738118;185;1020759;-64
2020/12/14 12:23:06;;;;;;;33.97;18.97;;;;;;;;;;741283;186;917949;-64
2020/12/14 12:25:32;;;;;;;33.03;18.00;;;;;;;;;;727877;190;919086;-64
2020/12/14 12:27:57;;;;;;;35.90;18.08;;;;;;;;;;700842;196;967924;-64
2020/12/14 12:30:23;;;;;;;30.37;16.93;;;;;;;;;;720373;192;918586;-64
2020/12/14 12:32:49;;;;;;;32.90;16.53;;;;;;;;;;712811;193;916008;-64
2020/12/14 12:35:16;;;;;;;31.90;17.77;;;;;;;;;;741302;186;922677;-65
2020/12/14 12:37:41;;;;;;;37.03;19.20;;;;;;;;;;741642;186;918988;-64
2020/12/14 12:40:08;;;;;;;44.47;18.93;;;;;;;;;;727487;190;919086;-64
2020/12/14 12:42:33;;;;;;;31.73;18.48;;;;;;;;;;718728;189;918734;-68
2020/12/14 12:44:59;;;;;;;33.10;18.77;;;;;;;;;;710363;194;918661;-64
2020/12/14 12:47:25;;;;;;;34.83;18.40;;;;;;;;;;715459;195;919381;-64
2020/12/14 12:49:51;;;;;;;35.90;16.40;;;;;;;;;;706137;195;927367;-65
2020/12/14 12:52:17;;;;;;;38.07;17.80;;;;;;;;;;723998;192;919137;-64
2020/12/14 12:54:42;;;;;;;34.40;16.87;;;;;;;;;;714930;193;919247;-64
2020/12/14 12:57:08;;;;;;;35.40;19.20;;;;;;;;;;723567;190;919313;-64
2020/12/14 12:59:34;;;;;;;31.83;18.47;;;;;;;;;;739511;186;919004;-64
2020/12/14 13:02:00;;;;;;;32.87;16.10;;;;;;;;;;745779;186;919271;-64
2020/12/14 13:04:26;;;;;;;29.90;17.00;;;;;;;;;;722053;190;919482;-64
2020/12/14 13:06:52;;;;;;;26.67;16.00;;;;;;;;;;722384;189;925737;-65
2020/12/14 13:09:17;;;;;;;26.50;16.10;;;;;;;;;;722202;191;900096;-64
2020/12/14 13:11:45;;;;;;;28.07;18.37;;;;;;;;;;726903;190;921734;-65
2020/12/14 13:14:11;;;;;;;29.63;16.60;;;;;;;;;;704488;195;919168;-68
2020/12/14 13:16:35;;;;;;;25.37;15.13;;;;;;;;;;724861;192;626547;-65
2020/12/14 13:19:01;;;;;;;30.17;14.90;;;;;;;;;;718964;193;626621;-65
2020/12/14 13:21:27;;;;;;;26.80;16.23;;;;;;;;;;714555;196;641200;-65
2020/12/14 13:23:53;;;;;;;30.07;17.07;;;;;;;;;;719179;194;625733;-64
2020/12/14 13:26:18;;;;;;;31.03;15.57;;;;;;;;;;724814;193;617561;-65
2020/12/14 13:28:44;;;;;;;27.03;14.50;;;;;;;;;;744217;187;918921;-64
2020/12/14 13:31:10;;;;;;;25.13;14.47;;;;;;;;;;725142;190;627488;-65
2020/12/14 13:33:36;;;;;;;23.67;13.80;;;;;;;;;;724595;193;632937;-65
2020/12/14 13:36:03;;;;;;;20.13;11.77;;;;;;;;;;746293;186;918929;-65
2020/12/14 13:38:29;;;;;;;26.67;14.43;;;;;;;;;;742334;186;943047;-65
2020/12/14 13:40:54;;;;;;;26.93;13.80;;;;;;;;;;738352;185;1011263;-65
2020/12/14 13:43:20;;;;;;;24.03;12.83;;;;;;;;;;742291;188;918607;-65
2020/12/14 13:45:46;;;;;;;27.53;15.23;;;;;;;;;;740550;186;1111904;-65
2020/12/14 13:48:12;;;;;;;27.98;14.50;;;;;;;;;;727404;189;924982;-65
2020/12/14 13:50:38;;;;;;;27.93;14.30;;;;;;;;;;748244;186;919174;-65
2020/12/14 13:53:04;;;;;;;22.97;12.67;;;;;;;;;;726824;190;935935;-65
2020/12/14 13:55:31;;;;;;;24.33;14.43;;;;;;;;;;736609;186;919262;-65